Time;durP1;ratioP1;P1;durP2;ratioP2;P2;SDS_P1;SDS_P2;PMS_P1;PMS_P2;Temp;Humidity;BMP_temperature;BMP_pressure;BME280_temperature;BME280_humidity;BME280_pressure;Samples;Min_cycle;Max_cycle;Signal;HPM_P1;HPM_P2
2022/06/08 00:01:45;;;;;;;2.33;2.05;;;21.70;56.40;;;;;;5056338;28;20388;-64
2022/06/08 00:04:13;;;;;;;2.45;2.25;;;21.70;56.50;;;;;;5055786;28;20055;-64
2022/06/08 00:06:39;;;;;;;2.40;2.20;;;21.70;56.40;;;;;;5055573;28;20044;-66
2022/06/08 00:09:05;;;;;;;2.30;2.10;;;21.60;56.30;;;;;;5055591;28;20124;-64
2022/06/08 00:11:31;;;;;;;2.05;1.95;;;21.60;56.30;;;;;;5055227;28;20163;-61
2022/06/08 00:13:57;;;;;;;2.58;2.15;;;21.60;56.30;;;;;;5055717;28;20183;-62
2022/06/08 00:16:23;;;;;;;2.50;2.28;;;21.60;56.30;;;;;;5054690;28;20230;-65
2022/06/08 00:18:49;;;;;;;2.55;2.28;;;21.60;56.40;;;;;;5052825;28;20119;-66
2022/06/08 00:21:16;;;;;;;2.75;2.20;;;21.60;56.30;;;;;;5057142;28;20036;-64
2022/06/08 00:23:42;;;;;;;2.28;2.13;;;21.60;56.30;;;;;;5054989;28;20446;-61
2022/06/08 00:26:09;;;;;;;2.78;2.38;;;21.60;57.00;;;;;;5057695;28;20079;-65
2022/06/08 00:28:34;;;;;;;2.75;2.05;;;21.60;56.20;;;;;;5055216;28;20099;-65
2022/06/08 00:31:01;;;;;;;2.13;2.00;;;21.60;56.20;;;;;;5056901;28;20400;-66
2022/06/08 00:33:26;;;;;;;2.70;2.50;;;21.60;56.20;;;;;;5055235;28;20805;-63
2022/06/08 00:35:52;;;;;;;2.50;2.20;;;21.60;56.20;;;;;;5055519;28;20044;-66
2022/06/08 00:38:18;;;;;;;2.50;2.30;;;21.60;56.20;;;;;;5055465;28;20069;-64
2022/06/08 00:40:55;;;;;;;2.38;2.15;;;21.60;56.20;;;;;;5056618;28;20048;-62
2022/06/08 00:43:21;;;;;;;3.22;2.25;;;21.60;56.20;;;;;;5055259;28;20041;-65
2022/06/08 00:45:47;;;;;;;2.40;2.20;;;21.60;56.20;;;;;;5053241;28;20055;-64
2022/06/08 00:48:14;;;;;;;2.55;2.13;;;21.60;56.30;;;;;;5056782;28;20122;-63
2022/06/08 00:50:49;;;;;;;2.83;2.30;;;21.60;56.30;;;;;;5054046;28;20025;-64
2022/06/08 00:53:19;;;;;;;2.63;2.40;;;21.60;56.20;;;;;;5055423;28;20060;-64
2022/06/08 00:55:45;;;;;;;2.65;2.38;;;21.60;56.30;;;;;;5052877;28;20043;-64
2022/06/08 00:58:14;;;;;;;4.18;2.53;;;21.60;56.30;;;;;;5055893;28;20045;-65
2022/06/08 01:00:41;;;;;;;3.20;2.25;;;21.60;56.30;;;;;;5056923;28;20044;-63
2022/06/08 01:03:10;;;;;;;2.35;2.15;;;21.60;56.30;;;;;;5051147;28;20516;-63
2022/06/08 01:05:46;;;;;;;2.55;2.08;;;21.60;56.30;;;;;;5049335;28;20048;-66
2022/06/08 01:08:26;;;;;;;2.47;2.28;;;21.60;56.20;;;;;;5056174;28;20075;-63
2022/06/08 01:10:56;;;;;;;2.75;2.55;;;21.50;56.20;;;;;;5056259;28;20040;-63
2022/06/08 01:13:22;;;;;;;2.53;2.33;;;21.60;56.30;;;;;;5054205;28;20041;-65
2022/06/08 01:15:48;;;;;;;2.40;2.20;;;21.50;56.20;;;;;;5053423;28;20040;-63
2022/06/08 01:18:15;;;;;;;2.50;2.30;;;21.50;56.20;;;;;;5054179;28;20080;-63
2022/06/08 01:20:46;;;;;;;2.25;2.05;;;21.50;56.20;;;;;;5053849;28;20131;-64
2022/06/08 01:23:11;;;;;;;2.70;2.10;;;21.50;56.20;;;;;;5055860;28;20434;-62
2022/06/08 01:26:02;;;;;;;2.63;2.42;;;21.50;56.20;;;;;;5053970;28;20128;-59
2022/06/08 01:28:58;;;;;;;2.85;2.60;;;21.50;56.20;;;;;;5054220;28;20045;-65
2022/06/08 01:31:37;;;;;;;3.55;2.58;;;21.50;56.10;;;;;;5052761;28;20044;-61
2022/06/08 01:34:23;;;;;;;2.38;2.20;;;21.50;56.20;;;;;;5055712;28;20509;-65
2022/06/08 01:37:13;;;;;;;3.08;2.35;;;21.50;56.10;;;;;;5034164;28;20056;-62
2022/06/08 01:40:07;;;;;;;2.78;2.58;;;21.50;56.20;;;;;;5055143;28;20127;-62
2022/06/08 01:42:48;;;;;;;2.58;2.38;;;21.50;56.10;;;;;;5053429;28;20048;-59
2022/06/08 01:45:33;;;;;;;5.30;2.08;;;21.50;56.10;;;;;;5054061;28;20059;-60
2022/06/08 01:48:17;;;;;;;2.85;2.35;;;21.50;56.20;;;;;;5052589;28;20109;-63
2022/06/08 01:51:23;;;;;;;2.30;2.10;;;21.50;56.20;;;;;;5054121;28;20076;-65
2022/06/08 01:54:30;;;;;;;2.70;2.45;;;21.50;56.00;;;;;;4962372;28;20125;-65
2022/06/08 01:57:35;;;;;;;2.40;2.10;;;21.50;56.10;;;;;;5055183;28;20053;-63
2022/06/08 02:00:10;;;;;;;2.33;2.13;;;21.50;56.10;;;;;;5028768;28;20055;-66
2022/06/08 02:02:40;;;;;;;2.53;2.33;;;21.50;56.20;;;;;;5049620;28;20052;-65
2022/06/08 02:05:10;;;;;;;3.15;2.25;;;21.40;56.20;;;;;;5053046;28;20076;-64
2022/06/08 02:07:40;;;;;;;2.50;2.30;;;21.50;56.20;;;;;;5053020;28;20089;-63
2022/06/08 02:10:11;;;;;;;2.78;2.40;;;21.50;56.10;;;;;;5053398;28;20094;-65
2022/06/08 02:12:49;;;;;;;2.42;2.22;;;21.50;56.20;;;;;;5054188;28;20461;-58
2022/06/08 02:15:27;;;;;;;2.92;2.40;;;21.50;56.20;;;;;;5052627;28;20192;-63
2022/06/08 02:17:56;;;;;;;2.53;2.33;;;21.50;56.10;;;;;;5052159;28;20045;-64
2022/06/08 02:20:30;;;;;;;3.00;2.35;;;21.40;56.10;;;;;;5050698;28;20385;-60
2022/06/08 02:23:03;;;;;;;2.80;2.60;;;21.50;56.10;;;;;;5055858;28;20120;-65
2022/06/08 02:26:12;;;;;;;2.38;2.17;;;21.50;56.10;;;;;;5054582;28;20040;-65
2022/06/08 02:28:43;;;;;;;2.58;2.38;;;21.50;56.00;;;;;;5055014;28;20358;-64
2022/06/08 02:31:31;;;;;;;2.40;2.20;;;21.50;56.10;;;;;;5035846;28;20500;-66
2022/06/08 02:36:53;;;;;;;2.97;2.70;;;21.40;56.10;;;;;;5053620;28;20095;-64
2022/06/08 02:39:33;;;;;;;2.85;2.55;;;21.40;56.10;;;;;;5055475;28;20036;-66
2022/06/08 02:42:07;;;;;;;3.08;2.58;;;21.40;56.00;;;;;;5053696;28;20044;-64
2022/06/08 02:44:34;;;;;;;2.88;2.55;;;21.40;56.10;;;;;;5059932;28;20692;-63
2022/06/08 02:47:13;;;;;;;3.45;2.47;;;21.40;56.10;;;;;;5057351;28;20120;-65
2022/06/08 02:49:39;;;;;;;3.38;2.70;;;21.40;56.10;;;;;;5056737;28;20033;-65
2022/06/08 02:52:28;;;;;;;3.30;2.30;;;21.40;56.10;;;;;;5059013;28;20045;-62
2022/06/08 02:54:54;;;;;;;2.63;2.42;;;21.40;56.00;;;;;;5057031;28;20041;-63
2022/06/08 02:57:43;;;;;;;2.80;2.60;;;21.40;56.20;;;;;;5056880;28;20075;-65
2022/06/08 03:00:11;;;;;;;2.80;2.60;;;21.40;56.00;;;;;;5056705;28;21677;-60
2022/06/08 03:02:48;;;;;;;2.97;2.45;;;21.40;56.10;;;;;;5056375;28;20040;-66
2022/06/08 03:05:28;;;;;;;2.90;2.63;;;21.40;56.00;;;;;;5039029;28;20059;-60
2022/06/08 03:08:22;;;;;;;3.92;2.60;;;21.40;56.10;;;;;;5056873;28;20045;-65
2022/06/08 03:10:49;;;;;;;3.05;2.80;;;21.40;56.00;;;;;;5047528;28;20116;-66
2022/06/08 03:13:28;;;;;;;2.60;2.33;;;21.40;56.10;;;;;;5042022;28;20033;-65
2022/06/08 03:16:06;;;;;;;2.60;2.40;;;21.40;56.10;;;;;;5056579;28;20270;-65
2022/06/08 03:18:32;;;;;;;2.92;2.53;;;21.40;56.10;;;;;;5054871;28;20041;-65
2022/06/08 03:21:00;;;;;;;3.00;2.80;;;21.40;56.10;;;;;;5057965;28;20522;-63
2022/06/08 03:23:25;;;;;;;3.10;2.80;;;21.40;56.10;;;;;;5059296;28;20036;-65
2022/06/08 03:25:51;;;;;;;2.75;2.55;;;21.40;56.10;;;;;;5056607;28;20735;-65
2022/06/08 03:28:19;;;;;;;3.45;2.88;;;21.40;56.10;;;;;;5057261;28;20044;-64
2022/06/08 03:30:45;;;;;;;3.30;3.00;;;21.40;56.10;;;;;;5058652;28;20445;-59
2022/06/08 03:33:12;;;;;;;2.58;2.38;;;21.40;56.10;;;;;;5056727;28;20510;-62
2022/06/08 03:35:38;;;;;;;3.25;2.95;;;21.40;56.10;;;;;;5054433;28;20056;-64
2022/06/08 03:38:05;;;;;;;2.90;2.70;;;21.40;56.10;;;;;;5058054;28;20090;-64
2022/06/08 03:40:31;;;;;;;3.15;2.85;;;21.40;56.10;;;;;;5053851;28;20037;-68
2022/06/08 03:42:56;;;;;;;3.50;3.20;;;21.40;56.00;;;;;;5057464;28;20040;-65
2022/06/08 03:45:23;;;;;;;3.33;3.03;;;21.40;56.10;;;;;;5057799;28;20517;-66
2022/06/08 03:47:52;;;;;;;3.47;2.92;;;21.40;56.10;;;;;;5039216;28;20163;-64
2022/06/08 03:50:25;;;;;;;3.05;2.80;;;21.40;56.00;;;;;;5055031;28;20040;-65
2022/06/08 03:52:55;;;;;;;2.83;2.63;;;21.40;56.00;;;;;;5055122;28;20075;-62
2022/06/08 03:55:22;;;;;;;3.50;3.20;;;21.40;56.10;;;;;;5053339;28;20033;-66
2022/06/08 03:57:50;;;;;;;3.13;2.90;;;21.40;56.10;;;;;;5055803;28;20080;-64
2022/06/08 04:00:18;;;;;;;4.07;2.83;;;21.40;56.10;;;;;;5056151;28;20086;-65
2022/06/08 04:02:45;;;;;;;3.50;3.20;;;21.40;56.10;;;;;;5054945;28;20033;-63
2022/06/08 04:05:11;;;;;;;4.38;3.08;;;21.40;56.10;;;;;;5054342;28;20039;-62
2022/06/08 04:07:36;;;;;;;3.13;2.65;;;21.40;56.10;;;;;;5052502;28;20036;-66
2022/06/08 04:10:02;;;;;;;3.10;2.88;;;21.40;56.10;;;;;;5052129;28;20036;-65
2022/06/08 04:12:28;;;;;;;3.22;2.92;;;21.40;56.10;;;;;;5037451;28;20045;-65
2022/06/08 04:14:54;;;;;;;3.50;3.20;;;21.40;56.10;;;;;;5056791;28;20087;-62
2022/06/08 04:17:20;;;;;;;3.35;3.05;;;21.40;56.10;;;;;;5054378;28;20505;-63
2022/06/08 04:19:49;;;;;;;3.20;2.90;;;21.40;56.20;;;;;;5054269;28;20135;-60
2022/06/08 04:22:17;;;;;;;2.97;2.67;;;21.40;56.20;;;;;;5055544;28;20041;-65
2022/06/08 04:24:43;;;;;;;3.75;3.25;;;21.40;56.20;;;;;;5055210;28;20047;-64
2022/06/08 04:27:10;;;;;;;3.53;3.22;;;21.40;56.20;;;;;;5054628;28;20033;-65
2022/06/08 04:29:36;;;;;;;3.60;3.28;;;21.40;56.20;;;;;;5056702;28;20342;-63
2022/06/08 04:32:02;;;;;;;3.13;2.80;;;21.40;56.20;;;;;;5056953;28;20037;-64
2022/06/08 04:34:28;;;;;;;3.08;2.88;;;21.40;56.30;;;;;;5055987;28;20041;-64
2022/06/08 04:36:54;;;;;;;3.50;3.20;;;21.30;56.20;;;;;;5055287;28;20539;-60
2022/06/08 04:39:19;;;;;;;2.90;2.70;;;21.40;56.20;;;;;;5055024;28;20037;-64
2022/06/08 04:41:45;;;;;;;3.22;3.03;;;21.30;56.20;;;;;;5057193;28;20040;-59
2022/06/08 04:44:11;;;;;;;3.78;3.10;;;21.40;56.30;;;;;;5054362;28;20039;-65
2022/06/08 04:46:37;;;;;;;3.50;3.20;;;21.30;56.20;;;;;;5054794;28;20044;-65
2022/06/08 04:49:03;;;;;;;3.60;3.30;;;21.30;56.20;;;;;;5054744;28;20033;-65
2022/06/08 04:51:29;;;;;;;3.38;3.08;;;21.30;56.20;;;;;;5056378;28;20044;-65
2022/06/08 04:53:55;;;;;;;3.80;3.42;;;21.30;56.20;;;;;;5053118;28;20040;-64
2022/06/08 04:56:21;;;;;;;3.60;3.30;;;21.40;56.40;;;;;;5055283;28;20095;-63
2022/06/08 04:58:47;;;;;;;3.22;2.88;;;21.30;56.30;;;;;;5050939;28;20740;-61
2022/06/08 05:01:13;;;;;;;3.88;3.30;;;21.30;56.30;;;;;;5054957;28;20113;-63
2022/06/08 05:03:38;;;;;;;3.70;3.40;;;21.40;56.40;;;;;;5054828;28;20036;-64
2022/06/08 05:06:04;;;;;;;4.25;3.35;;;21.40;56.40;;;;;;5053812;28;20101;-63
2022/06/08 05:08:30;;;;;;;3.53;3.22;;;21.40;56.40;;;;;;5034642;28;20075;-64
2022/06/08 05:10:57;;;;;;;3.40;2.72;;;21.30;56.30;;;;;;5052815;28;20445;-64
2022/06/08 05:13:23;;;;;;;3.60;3.30;;;21.30;56.20;;;;;;5054213;28;20103;-63
2022/06/08 05:15:49;;;;;;;2.72;2.53;;;21.30;56.10;;;;;;5054418;28;20040;-63
2022/06/08 05:18:18;;;;;;;2.67;2.30;;;21.30;56.00;;;;;;5057266;28;20668;-65
2022/06/08 05:20:45;;;;;;;3.00;2.30;;;21.30;55.90;;;;;;5052269;28;20051;-63
2022/06/08 05:23:19;;;;;;;3.00;2.80;;;21.30;55.90;;;;;;5054845;28;20052;-63
2022/06/08 05:25:45;;;;;;;3.00;2.80;;;21.30;55.90;;;;;;5036058;28;20231;-62
2022/06/08 05:28:13;;;;;;;3.20;2.90;;;21.30;56.00;;;;;;5054426;28;20051;-63
2022/06/08 05:30:39;;;;;;;2.78;2.58;;;21.30;56.00;;;;;;5055124;28;20110;-62
2022/06/08 05:33:06;;;;;;;4.35;3.20;;;21.30;56.00;;;;;;5050406;28;20059;-61
2022/06/08 05:35:32;;;;;;;3.83;3.30;;;21.30;56.40;;;;;;5052837;28;20044;-64
2022/06/08 05:37:58;;;;;;;3.53;2.95;;;21.30;56.60;;;;;;5054905;28;20037;-64
2022/06/08 05:40:25;;;;;;;3.45;3.00;;;21.30;56.90;;;;;;5053411;28;20063;-63
2022/06/08 05:42:51;;;;;;;4.85;3.20;;;21.30;57.00;;;;;;5055288;28;20076;-64
2022/06/08 05:45:21;;;;;;;3.50;3.20;;;21.30;57.10;;;;;;5034973;28;20110;-62
2022/06/08 05:47:47;;;;;;;3.70;3.40;;;21.40;57.20;;;;;;5054885;28;20037;-62
2022/06/08 05:50:13;;;;;;;4.03;3.70;;;21.30;57.10;;;;;;5050025;28;20115;-62
2022/06/08 05:52:39;;;;;;;4.68;4.15;;;21.40;57.20;;;;;;5053161;28;20036;-62
2022/06/08 05:55:06;;;;;;;4.47;4.07;;;21.40;57.50;;;;;;5054295;28;20024;-62
2022/06/08 05:57:31;;;;;;;5.03;4.63;;;21.40;57.50;;;;;;5051596;28;20051;-62
2022/06/08 05:59:57;;;;;;;4.45;3.58;;;21.30;57.40;;;;;;5053292;28;20383;-64
2022/06/08 06:02:24;;;;;;;6.97;5.28;;;21.30;57.20;;;;;;5055310;28;20090;-65
2022/06/08 06:04:50;;;;;;;5.93;5.32;;;21.40;57.20;;;;;;5052734;28;20055;-63
2022/06/08 06:07:16;;;;;;;6.90;6.10;;;21.40;57.20;;;;;;5054481;28;20040;-62
2022/06/08 06:09:42;;;;;;;6.32;5.72;;;21.40;57.20;;;;;;5038230;28;20082;-62
2022/06/08 06:12:09;;;;;;;6.13;5.60;;;21.40;57.10;;;;;;5053149;28;20033;-63
2022/06/08 06:14:35;;;;;;;10.77;5.78;;;21.40;57.30;;;;;;5053052;28;20087;-62
2022/06/08 06:17:01;;;;;;;5.10;4.60;;;21.40;57.20;;;;;;5051235;28;20082;-62
2022/06/08 06:19:27;;;;;;;5.90;5.38;;;21.40;58.20;;;;;;5022627;28;20072;-62
2022/06/08 06:21:53;;;;;;;7.03;5.43;;;21.40;57.30;;;;;;5057844;28;20135;-62
2022/06/08 06:24:19;;;;;;;5.13;4.70;;;21.40;57.50;;;;;;5039190;28;20036;-62
2022/06/08 06:26:45;;;;;;;7.30;5.30;;;21.40;57.50;;;;;;5058389;28;20397;-62
2022/06/08 06:29:11;;;;;;;6.63;4.70;;;21.40;57.90;;;;;;5057101;28;20036;-62
2022/06/08 06:31:44;;;;;;;5.95;4.43;;;21.40;57.80;;;;;;5056618;28;20389;-62
2022/06/08 06:34:15;;;;;;;6.13;4.22;;;21.40;58.10;;;;;;5059273;28;20049;-62
2022/06/08 06:36:41;;;;;;;6.45;4.57;;;21.40;58.30;;;;;;5056804;28;20041;-63
2022/06/08 06:39:06;;;;;;;6.28;4.53;;;21.40;58.40;;;;;;5039105;28;20404;-62
2022/06/08 06:41:33;;;;;;;5.10;4.20;;;21.40;58.40;;;;;;5040692;28;20205;-63
2022/06/08 06:43:59;;;;;;;5.18;4.63;;;21.40;58.40;;;;;;5055925;28;20613;-62
2022/06/08 06:46:25;;;;;;;6.53;4.75;;;21.40;58.70;;;;;;5055508;28;20064;-61
2022/06/08 06:48:51;;;;;;;5.20;4.70;;;21.40;58.90;;;;;;5055603;28;20095;-62
2022/06/08 06:51:17;;;;;;;5.75;5.25;;;21.40;59.00;;;;;;5057120;28;20036;-63
2022/06/08 06:53:43;;;;;;;4.95;4.40;;;21.40;59.10;;;;;;5056981;28;20722;-62
2022/06/08 06:56:09;;;;;;;5.63;5.03;;;21.40;59.20;;;;;;5056246;28;20064;-62
2022/06/08 06:58:35;;;;;;;6.00;5.18;;;21.40;59.30;;;;;;5057822;28;20044;-64
2022/06/08 07:01:01;;;;;;;4.22;3.83;;;21.40;59.40;;;;;;5056041;28;20045;-62
2022/06/08 07:03:27;;;;;;;6.43;4.10;;;21.40;59.10;;;;;;5057045;28;20036;-63
2022/06/08 07:05:53;;;;;;;5.43;4.38;;;21.40;58.90;;;;;;5057193;28;20045;-65
2022/06/08 07:08:18;;;;;;;4.25;3.47;;;21.40;58.70;;;;;;5057086;28;20040;-63
2022/06/08 07:11:32;;;;;;;6.05;4.13;;;21.40;58.80;;;;;;5053849;28;20044;-64
2022/06/08 07:13:30;;;;;;;3.97;3.60;;;21.40;58.90;;;;;;5035830;28;20596;-64
2022/06/08 07:15:55;;;;;;;4.28;3.58;;;21.40;59.00;;;;;;5024519;28;20052;-62
2022/06/08 07:18:21;;;;;;;6.22;3.90;;;21.40;59.20;;;;;;5056667;28;20116;-62
2022/06/08 07:20:47;;;;;;;5.45;4.30;;;21.40;59.30;;;;;;5051343;28;20555;-62
2022/06/08 07:23:12;;;;;;;4.95;3.78;;;21.40;59.70;;;;;;5054715;28;20380;-62
2022/06/08 07:25:38;;;;;;;3.58;3.05;;;21.40;60.00;;;;;;5057137;28;20036;-62
2022/06/08 07:28:04;;;;;;;3.78;3.47;;;21.40;60.00;;;;;;5053946;28;20737;-62
2022/06/08 07:30:30;;;;;;;4.85;3.08;;;21.40;59.80;;;;;;5053310;28;20040;-62
2022/06/08 07:32:55;;;;;;;3.22;2.90;;;21.40;59.80;;;;;;5055543;28;20061;-62
2022/06/08 07:35:21;;;;;;;3.03;2.80;;;21.40;59.80;;;;;;5056110;28;20163;-62
2022/06/08 07:37:47;;;;;;;3.05;2.72;;;21.40;59.90;;;;;;5056058;28;20144;-62
2022/06/08 07:40:13;;;;;;;4.53;2.83;;;21.40;59.90;;;;;;5056561;28;20049;-62
2022/06/08 07:42:39;;;;;;;3.25;2.92;;;21.40;59.80;;;;;;5057568;28;20462;-62
2022/06/08 07:45:07;;;;;;;4.97;2.83;;;21.40;59.80;;;;;;5057436;28;20028;-62
2022/06/08 07:47:33;;;;;;;3.17;2.72;;;21.40;59.60;;;;;;5057869;28;20086;-62
2022/06/08 07:49:59;;;;;;;3.65;2.58;;;21.40;59.40;;;;;;5057551;28;20406;-62
2022/06/08 07:52:25;;;;;;;4.20;2.38;;;21.40;59.50;;;;;;5053620;28;20037;-63
2022/06/08 07:54:51;;;;;;;3.15;2.40;;;21.40;59.50;;;;;;5055723;28;20039;-63
2022/06/08 07:57:20;;;;;;;3.15;2.72;;;21.40;59.60;;;;;;5056735;28;20036;-63
2022/06/08 07:59:46;;;;;;;2.90;2.47;;;21.40;59.60;;;;;;5056662;28;20049;-63
2022/06/08 08:02:12;;;;;;;2.67;2.35;;;21.40;59.70;;;;;;5039165;28;20037;-63
2022/06/08 08:04:38;;;;;;;4.88;2.60;;;21.40;59.80;;;;;;5056539;28;20487;-63
2022/06/08 08:07:04;;;;;;;4.25;2.72;;;21.40;59.80;;;;;;5055278;28;20182;-63
2022/06/08 08:09:33;;;;;;;3.05;2.10;;;21.40;59.90;;;;;;5055295;28;20464;-63
2022/06/08 08:12:00;;;;;;;3.88;2.40;;;21.40;60.00;;;;;;5056948;28;20465;-63
2022/06/08 08:14:26;;;;;;;4.35;2.47;;;21.50;60.30;;;;;;5055406;28;20388;-63
2022/06/08 08:16:53;;;;;;;3.53;2.15;;;21.40;60.40;;;;;;5056229;28;20124;-62
2022/06/08 08:19:22;;;;;;;2.88;2.35;;;21.40;60.70;;;;;;5057511;28;20052;-63
2022/06/08 08:21:49;;;;;;;3.60;1.90;;;21.50;60.80;;;;;;5053527;28;20041;-63
2022/06/08 08:24:15;;;;;;;2.97;2.22;;;21.50;60.90;;;;;;5054875;28;20044;-63
2022/06/08 08:26:43;;;;;;;3.50;2.10;;;21.50;60.90;;;;;;5039438;28;20056;-63
2022/06/08 08:29:09;;;;;;;2.92;1.70;;;21.50;61.10;;;;;;5057812;28;20045;-63
2022/06/08 08:31:35;;;;;;;3.35;1.98;;;21.50;61.20;;;;;;5056051;28;20037;-63
2022/06/08 08:34:01;;;;;;;2.17;1.88;;;21.50;61.20;;;;;;5055059;28;20059;-62
2022/06/08 08:36:27;;;;;;;2.38;1.70;;;21.50;61.30;;;;;;5054037;28;20051;-62
2022/06/08 08:38:53;;;;;;;4.43;1.70;;;21.50;61.30;;;;;;5057017;28;20052;-63
2022/06/08 08:44:19;;;;;;;2.58;1.85;;;21.50;61.30;;;;;;5053460;28;20467;-63
2022/06/08 08:46:58;;;;;;;2.25;1.60;;;21.50;62.00;;;;;;5054349;28;20559;-62
2022/06/08 08:49:27;;;;;;;2.08;1.58;;;21.50;61.30;;;;;;5054843;28;20040;-62
2022/06/08 08:52:01;;;;;;;2.00;1.80;;;21.50;61.20;;;;;;5054952;28;20047;-63
2022/06/08 08:54:34;;;;;;;4.20;1.75;;;21.50;61.30;;;;;;5054878;28;20064;-62
2022/06/08 08:57:28;;;;;;;1.83;1.58;;;21.50;61.30;;;;;;5054595;28;20106;-62
2022/06/08 08:59:54;;;;;;;1.40;1.30;;;21.50;61.20;;;;;;5056900;28;20448;-63
2022/06/08 09:05:21;;;;;;;2.55;1.48;;;21.50;61.40;;;;;;5053043;28;20052;-63
2022/06/08 09:07:47;;;;;;;1.50;1.40;;;21.50;61.40;;;;;;5051232;28;20102;-63
2022/06/08 09:10:22;;;;;;;1.77;1.50;;;21.50;61.50;;;;;;5052179;28;20467;-63
2022/06/08 09:12:49;;;;;;;2.80;2.00;;;21.50;61.50;;;;;;5052773;28;20467;-63
2022/06/08 09:15:17;;;;;;;1.85;1.27;;;21.50;61.40;;;;;;5050895;28;20065;-63
2022/06/08 09:17:58;;;;;;;1.60;1.50;;;21.50;61.50;;;;;;5052835;28;20083;-63
2022/06/08 09:20:35;;;;;;;2.80;1.50;;;21.50;61.50;;;;;;5052958;28;20047;-63
2022/06/08 09:23:23;;;;;;;3.42;1.55;;;21.50;61.50;;;;;;5055466;28;20048;-63
2022/06/08 09:26:24;;;;;;;2.25;1.50;;;21.50;61.50;;;;;;5056240;28;20116;-63
2022/06/08 09:29:21;;;;;;;2.88;1.95;;;21.50;61.40;;;;;;5010833;28;20048;-62
2022/06/08 09:31:49;;;;;;;2.22;1.80;;;21.50;61.40;;;;;;5055102;28;20760;-63
2022/06/08 09:34:22;;;;;;;2.60;1.80;;;21.50;61.60;;;;;;5057130;28;20060;-62
2022/06/08 09:37:24;;;;;;;2.40;1.60;;;21.50;61.70;;;;;;5055154;28;20484;-62
2022/06/08 09:39:50;;;;;;;2.03;1.75;;;21.50;61.80;;;;;;5055231;28;20049;-63
2022/06/08 09:42:36;;;;;;;2.72;1.88;;;21.50;61.70;;;;;;5054253;28;20040;-63
2022/06/08 09:45:14;;;;;;;2.85;1.55;;;21.50;61.60;;;;;;5053939;28;20052;-63
2022/06/08 09:53:42;;;;;;;1.55;1.45;;;21.50;61.20;;;;;;5055602;28;19924;-63
2022/06/08 09:56:29;;;;;;;1.40;1.30;;;21.50;61.30;;;;;;5053306;28;20045;-63
2022/06/08 09:59:16;;;;;;;2.20;1.40;;;21.50;61.30;;;;;;5052334;28;20045;-63
2022/06/08 10:01:54;;;;;;;1.70;1.60;;;21.50;61.20;;;;;;5054714;28;20041;-63
2022/06/08 10:05:02;;;;;;;1.75;1.50;;;21.50;61.20;;;;;;5052498;28;20116;-63
2022/06/08 10:07:45;;;;;;;2.13;1.70;;;21.50;61.00;;;;;;5052386;28;20516;-63
2022/06/08 10:10:32;;;;;;;1.52;1.30;;;21.50;61.10;;;;;;5053138;28;20460;-63
2022/06/08 10:13:10;;;;;;;1.80;1.60;;;21.50;61.00;;;;;;5034651;28;20052;-63
2022/06/08 10:15:48;;;;;;;2.28;1.60;;;21.50;61.00;;;;;;5053184;28;20040;-63
2022/06/08 10:18:33;;;;;;;4.43;1.95;;;21.50;61.00;;;;;;5052979;28;20041;-65
2022/06/08 10:21:16;;;;;;;2.70;1.80;;;21.50;61.00;;;;;;5053592;28;20637;-62
2022/06/08 10:23:47;;;;;;;2.00;1.80;;;21.50;61.00;;;;;;5054265;28;20587;-62
2022/06/08 10:26:22;;;;;;;3.13;2.13;;;21.50;61.10;;;;;;5051837;28;20100;-62
2022/06/08 10:29:05;;;;;;;2.28;1.80;;;21.50;61.20;;;;;;5052176;28;20233;-62
2022/06/08 10:31:44;;;;;;;4.35;1.92;;;21.60;61.40;;;;;;5052668;28;20028;-62
2022/06/08 10:34:21;;;;;;;1.75;1.60;;;21.50;61.50;;;;;;5050383;28;20049;-62
2022/06/08 10:36:50;;;;;;;3.85;1.80;;;21.50;61.50;;;;;;5052297;28;20806;-62
2022/06/08 10:39:17;;;;;;;4.37;1.93;;;21.50;61.60;;;;;;5054087;28;20044;-62
2022/06/08 10:44:43;;;;;;;3.15;1.85;;;21.60;61.70;;;;;;5055045;28;20033;-62
2022/06/08 10:47:12;;;;;;;3.10;1.95;;;21.50;61.70;;;;;;5054051;28;20036;-62
2022/06/08 10:49:37;;;;;;;4.15;1.90;;;21.60;61.70;;;;;;5051780;28;20086;-62
2022/06/08 10:52:26;;;;;;;3.15;2.13;;;21.60;61.80;;;;;;5052948;28;20045;-62
2022/06/08 10:55:12;;;;;;;2.33;1.50;;;21.60;61.80;;;;;;5052650;28;20033;-62
2022/06/08 10:57:42;;;;;;;1.55;1.45;;;21.60;61.80;;;;;;5051749;28;20049;-63
2022/06/08 11:00:20;;;;;;;1.70;1.50;;;21.60;61.80;;;;;;5053088;28;20049;-64
2022/06/08 11:03:02;;;;;;;3.63;1.88;;;21.60;61.80;;;;;;5037194;28;20051;-62
2022/06/08 11:05:28;;;;;;;1.70;1.60;;;21.60;61.80;;;;;;5059051;28;20071;-63
2022/06/08 11:08:06;;;;;;;3.10;1.60;;;21.60;61.80;;;;;;5058070;28;20059;-65
2022/06/08 11:10:57;;;;;;;3.83;1.60;;;21.60;61.90;;;;;;5053645;28;20041;-63
2022/06/08 11:13:24;;;;;;;3.17;1.55;;;21.60;61.80;;;;;;5056788;28;20836;-63
2022/06/08 11:15:53;;;;;;;4.43;1.90;;;21.60;61.90;;;;;;5053986;28;20047;-63
2022/06/08 11:18:21;;;;;;;2.22;1.98;;;21.60;61.90;;;;;;5055105;28;20045;-63
2022/06/08 11:21:05;;;;;;;2.63;2.05;;;21.60;61.90;;;;;;5036837;28;20037;-63
2022/06/08 11:23:40;;;;;;;1.50;1.40;;;21.60;61.70;;;;;;5057011;28;20033;-63
2022/06/08 11:26:12;;;;;;;2.30;1.67;;;21.60;61.70;;;;;;5058270;28;20077;-63
2022/06/08 11:28:45;;;;;;;3.35;1.50;;;21.60;61.70;;;;;;5054762;28;20106;-62
2022/06/08 11:31:28;;;;;;;4.07;1.90;;;21.60;61.60;;;;;;5056189;28;20028;-63
2022/06/08 11:34:19;;;;;;;2.63;1.88;;;21.60;61.50;;;;;;5036882;28;20069;-63
2022/06/08 11:36:50;;;;;;;3.83;1.75;;;21.60;61.50;;;;;;5053997;28;20065;-63
2022/06/08 11:39:32;;;;;;;2.00;1.70;;;21.60;61.60;;;;;;5055910;28;20037;-63
2022/06/08 11:42:09;;;;;;;2.45;1.55;;;21.50;61.50;;;;;;5056501;28;20055;-63
2022/06/08 11:44:36;;;;;;;3.22;1.58;;;21.60;61.60;;;;;;5053240;28;20098;-63
2022/06/08 11:47:11;;;;;;;4.72;1.63;;;21.60;61.70;;;;;;5055796;28;20045;-63
2022/06/08 11:49:45;;;;;;;4.45;1.83;;;21.60;61.70;;;;;;5057861;28;20032;-62
2022/06/08 11:52:23;;;;;;;5.00;1.55;;;21.50;61.90;;;;;;5054277;28;20037;-63
2022/06/08 11:55:19;;;;;;;3.85;1.42;;;21.60;62.20;;;;;;5058790;28;20048;-63
2022/06/08 11:57:55;;;;;;;2.67;1.48;;;21.60;62.30;;;;;;5057143;28;20489;-63
2022/06/08 12:00:24;;;;;;;1.55;1.23;;;21.60;62.30;;;;;;5055725;28;20114;-63
2022/06/08 12:03:05;;;;;;;1.98;1.20;;;21.60;62.20;;;;;;5053906;28;20044;-63
2022/06/08 12:05:34;;;;;;;2.13;1.20;;;21.50;62.00;;;;;;5056007;28;20388;-63
2022/06/08 12:08:09;;;;;;;6.10;1.52;;;21.60;61.90;;;;;;5055472;28;20392;-62
2022/06/08 12:10:36;;;;;;;2.55;1.20;;;21.50;61.90;;;;;;5056391;28;20087;-63
2022/06/08 12:13:04;;;;;;;4.57;1.70;;;21.50;62.30;;;;;;5055389;28;20040;-63
2022/06/08 12:15:44;;;;;;;2.42;1.48;;;21.60;62.30;;;;;;5055365;28;20052;-63
2022/06/08 12:18:09;;;;;;;5.85;1.55;;;21.60;62.30;;;;;;5055401;28;20118;-62
2022/06/08 12:20:39;;;;;;;2.70;1.27;;;21.60;62.40;;;;;;5055980;28;20045;-63
2022/06/08 12:23:05;;;;;;;1.75;1.00;;;21.50;62.30;;;;;;5056589;28;20052;-63
2022/06/08 12:25:31;;;;;;;2.40;1.60;;;21.60;62.30;;;;;;5054961;28;20029;-63
2022/06/08 12:28:11;;;;;;;5.05;1.70;;;21.60;62.30;;;;;;5058272;28;20490;-63
2022/06/08 12:30:47;;;;;;;4.95;1.40;;;21.60;62.40;;;;;;5055572;28;20036;-63
2022/06/08 12:33:16;;;;;;;2.50;1.35;;;21.60;62.30;;;;;;5056766;28;20053;-63
2022/06/08 12:35:53;;;;;;;3.58;1.30;;;21.60;62.30;;;;;;5054971;28;20036;-63
2022/06/08 12:38:27;;;;;;;1.92;1.27;;;21.60;62.30;;;;;;5056150;28;20093;-62
2022/06/08 12:41:08;;;;;;;2.40;1.50;;;21.60;62.30;;;;;;5055510;28;20047;-63
2022/06/08 12:43:41;;;;;;;2.95;1.55;;;21.60;63.00;;;;;;5054354;28;20040;-63
2022/06/08 12:46:15;;;;;;;2.63;1.30;;;21.60;62.30;;;;;;5056042;28;20037;-63
2022/06/08 12:49:18;;;;;;;2.35;1.40;;;21.50;62.30;;;;;;5055147;28;20098;-63
2022/06/08 12:52:00;;;;;;;2.90;1.48;;;21.60;62.30;;;;;;5056248;28;20144;-64
2022/06/08 12:54:31;;;;;;;2.67;1.40;;;21.60;62.90;;;;;;5052531;28;20044;-63
2022/06/08 12:57:15;;;;;;;3.53;1.50;;;21.50;63.20;;;;;;5057048;28;20064;-63
2022/06/08 12:59:42;;;;;;;4.78;1.50;;;21.50;63.30;;;;;;5053877;28;20052;-63
2022/06/08 13:02:20;;;;;;;2.55;1.23;;;21.50;63.50;;;;;;5054287;28;20933;-64
2022/06/08 13:04:46;;;;;;;4.60;1.60;;;21.50;63.70;;;;;;5054949;28;20089;-63
2022/06/08 13:07:18;;;;;;;2.65;1.38;;;21.50;63.90;;;;;;5051506;28;20040;-64
2022/06/08 13:09:44;;;;;;;2.17;1.25;;;21.60;64.10;;;;;;5053068;28;20082;-65
2022/06/08 13:12:14;;;;;;;3.25;1.25;;;21.50;64.00;;;;;;5052351;28;20032;-63
2022/06/08 13:14:41;;;;;;;2.42;1.40;;;21.60;64.20;;;;;;5051749;28;20250;-63
2022/06/08 13:17:09;;;;;;;2.42;1.60;;;21.60;64.40;;;;;;5053980;28;20067;-63
2022/06/08 13:19:35;;;;;;;2.67;1.30;;;21.60;64.50;;;;;;5055658;28;20049;-62
2022/06/08 13:22:01;;;;;;;3.25;1.48;;;21.60;64.70;;;;;;5058031;28;20044;-63
2022/06/08 13:24:27;;;;;;;1.45;1.20;;;21.60;64.70;;;;;;5055163;28;20047;-63
2022/06/08 13:26:53;;;;;;;2.88;1.52;;;21.60;64.70;;;;;;5052521;28;21730;-63
2022/06/08 13:29:20;;;;;;;3.25;1.45;;;21.60;64.90;;;;;;5054030;28;20072;-63